sensor_id;sensor_type;location;lat;lon;timestamp;temperature;humidity
55634;DHT22;41504;53.162;6.788;2023-12-14T00:01:48;5.70;99.90
55634;DHT22;41504;53.162;6.788;2023-12-14T00:04:14;5.70;99.90
55634;DHT22;41504;53.162;6.788;2023-12-14T00:06:39;5.70;99.90
55634;DHT22;41504;53.162;6.788;2023-12-14T00:09:05;5.70;99.90
55634;DHT22;41504;53.162;6.788;2023-12-14T00:11:31;5.70;99.90
55634;DHT22;41504;53.162;6.788;2023-12-14T00:13:56;5.70;99.90
55634;DHT22;41504;53.162;6.788;2023-12-14T00:16:25;5.70;99.90
55634;DHT22;41504;53.162;6.788;2023-12-14T00:18:50;5.70;99.90
55634;DHT22;41504;53.162;6.788;2023-12-14T00:21:16;5.90;99.90
55634;DHT22;41504;53.162;6.788;2023-12-14T00:23:42;5.70;99.90
55634;DHT22;41504;53.162;6.788;2023-12-14T00:26:07;5.70;99.90
55634;DHT22;41504;53.162;6.788;2023-12-14T00:28:33;5.70;99.90
55634;DHT22;41504;53.162;6.788;2023-12-14T00:30:59;5.70;99.90
55634;DHT22;41504;53.162;6.788;2023-12-14T00:33:24;5.70;99.90
55634;DHT22;41504;53.162;6.788;2023-12-14T00:35:51;5.70;99.90
55634;DHT22;41504;53.162;6.788;2023-12-14T00:38:16;5.70;99.90
55634;DHT22;41504;53.162;6.788;2023-12-14T00:40:42;5.70;99.90
55634;DHT22;41504;53.162;6.788;2023-12-14T00:43:08;5.70;99.90
55634;DHT22;41504;53.162;6.788;2023-12-14T00:45:33;5.70;99.90
55634;DHT22;41504;53.162;6.788;2023-12-14T00:47:59;5.70;99.90
55634;DHT22;41504;53.162;6.788;2023-12-14T00:50:25;5.70;99.90
55634;DHT22;41504;53.162;6.788;2023-12-14T00:52:50;5.70;99.90
55634;DHT22;41504;53.162;6.788;2023-12-14T00:55:16;5.70;99.90
55634;DHT22;41504;53.162;6.788;2023-12-14T00:57:42;5.70;99.90
55634;DHT22;41504;53.162;6.788;2023-12-14T01:00:08;5.70;99.90
55634;DHT22;41504;53.162;6.788;2023-12-14T01:02:36;5.70;99.90
55634;DHT22;41504;53.162;6.788;2023-12-14T01:05:01;5.70;99.90
55634;DHT22;41504;53.162;6.788;2023-12-14T01:07:27;5.70;99.90
55634;DHT22;41504;53.162;6.788;2023-12-14T01:09:55;5.60;99.90
55634;DHT22;41504;53.162;6.788;2023-12-14T01:12:21;5.60;99.90
55634;DHT22;41504;53.162;6.788;2023-12-14T01:14:47;5.60;99.90
55634;DHT22;41504;53.162;6.788;2023-12-14T01:17:12;5.60;99.90
55634;DHT22;41504;53.162;6.788;2023-12-14T01:19:41;5.60;99.90
55634;DHT22;41504;53.162;6.788;2023-12-14T01:22:07;5.70;99.90
55634;DHT22;41504;53.162;6.788;2023-12-14T01:24:33;5.60;99.90
55634;DHT22;41504;53.162;6.788;2023-12-14T01:26:59;5.60;99.90
55634;DHT22;41504;53.162;6.788;2023-12-14T01:29:25;5.60;99.90
55634;DHT22;41504;53.162;6.788;2023-12-14T01:31:51;5.60;99.90
55634;DHT22;41504;53.162;6.788;2023-12-14T01:34:17;5.60;99.90
55634;DHT22;41504;53.162;6.788;2023-12-14T01:36:42;5.60;99.90
55634;DHT22;41504;53.162;6.788;2023-12-14T01:39:08;5.60;99.90
55634;DHT22;41504;53.162;6.788;2023-12-14T01:41:34;5.60;99.90
55634;DHT22;41504;53.162;6.788;2023-12-14T01:43:59;5.60;99.90
55634;DHT22;41504;53.162;6.788;2023-12-14T01:46:25;5.50;99.90
55634;DHT22;41504;53.162;6.788;2023-12-14T01:48:51;5.50;99.90
55634;DHT22;41504;53.162;6.788;2023-12-14T01:51:18;5.50;99.90
55634;DHT22;41504;53.162;6.788;2023-12-14T01:53:44;5.50;99.90
55634;DHT22;41504;53.162;6.788;2023-12-14T01:56:10;5.50;99.90
55634;DHT22;41504;53.162;6.788;2023-12-14T01:58:36;5.70;99.90
55634;DHT22;41504;53.162;6.788;2023-12-14T02:01:21;5.40;99.90
55634;DHT22;41504;53.162;6.788;2023-12-14T02:03:50;5.40;99.90
55634;DHT22;41504;53.162;6.788;2023-12-14T02:06:16;5.50;99.90
55634;DHT22;41504;53.162;6.788;2023-12-14T02:08:42;5.60;99.90
55634;DHT22;41504;53.162;6.788;2023-12-14T02:11:08;5.40;99.90
55634;DHT22;41504;53.162;6.788;2023-12-14T02:13:34;5.40;99.90
55634;DHT22;41504;53.162;6.788;2023-12-14T02:16:03;5.40;99.90
55634;DHT22;41504;53.162;6.788;2023-12-14T02:18:29;5.40;99.90
55634;DHT22;41504;53.162;6.788;2023-12-14T02:20:54;5.50;99.90
55634;DHT22;41504;53.162;6.788;2023-12-14T02:23:20;5.50;99.90
55634;DHT22;41504;53.162;6.788;2023-12-14T02:25:46;5.50;99.90
55634;DHT22;41504;53.162;6.788;2023-12-14T02:28:11;5.50;99.90
55634;DHT22;41504;53.162;6.788;2023-12-14T02:30:37;5.50;99.90
55634;DHT22;41504;53.162;6.788;2023-12-14T02:33:03;5.50;99.90
55634;DHT22;41504;53.162;6.788;2023-12-14T02:35:29;5.50;99.90
55634;DHT22;41504;53.162;6.788;2023-12-14T02:37:54;5.50;99.90
55634;DHT22;41504;53.162;6.788;2023-12-14T02:40:20;5.50;99.90
55634;DHT22;41504;53.162;6.788;2023-12-14T02:42:46;5.50;99.90
55634;DHT22;41504;53.162;6.788;2023-12-14T02:45:11;5.40;99.90
55634;DHT22;41504;53.162;6.788;2023-12-14T02:47:37;5.40;99.90
55634;DHT22;41504;53.162;6.788;2023-12-14T02:50:03;5.40;99.90
55634;DHT22;41504;53.162;6.788;2023-12-14T02:52:32;5.40;99.90
55634;DHT22;41504;53.162;6.788;2023-12-14T02:54:57;5.40;99.90
55634;DHT22;41504;53.162;6.788;2023-12-14T02:57:23;5.40;99.90
55634;DHT22;41504;53.162;6.788;2023-12-14T02:59:49;5.40;99.90
55634;DHT22;41504;53.162;6.788;2023-12-14T03:02:14;5.40;99.90
55634;DHT22;41504;53.162;6.788;2023-12-14T03:04:40;5.70;99.90
55634;DHT22;41504;53.162;6.788;2023-12-14T03:07:06;5.40;99.90
55634;DHT22;41504;53.162;6.788;2023-12-14T03:09:32;5.50;99.90
55634;DHT22;41504;53.162;6.788;2023-12-14T03:12:00;5.40;99.90
55634;DHT22;41504;53.162;6.788;2023-12-14T03:14:26;5.40;99.90
55634;DHT22;41504;53.162;6.788;2023-12-14T03:16:51;5.40;99.90
55634;DHT22;41504;53.162;6.788;2023-12-14T03:19:20;5.40;99.90
55634;DHT22;41504;53.162;6.788;2023-12-14T03:21:46;5.40;99.90
55634;DHT22;41504;53.162;6.788;2023-12-14T03:24:12;5.30;99.90
55634;DHT22;41504;53.162;6.788;2023-12-14T03:26:37;5.30;99.90
55634;DHT22;41504;53.162;6.788;2023-12-14T03:29:03;5.30;99.90
55634;DHT22;41504;53.162;6.788;2023-12-14T03:31:29;5.30;99.90
55634;DHT22;41504;53.162;6.788;2023-12-14T03:33:54;5.40;99.90
55634;DHT22;41504;53.162;6.788;2023-12-14T03:36:23;5.30;99.90
55634;DHT22;41504;53.162;6.788;2023-12-14T03:38:52;5.30;99.90
55634;DHT22;41504;53.162;6.788;2023-12-14T03:41:17;5.60;99.90
55634;DHT22;41504;53.162;6.788;2023-12-14T03:43:43;5.30;99.90
55634;DHT22;41504;53.162;6.788;2023-12-14T03:46:10;5.30;99.90
55634;DHT22;41504;53.162;6.788;2023-12-14T03:48:38;5.30;99.90
55634;DHT22;41504;53.162;6.788;2023-12-14T03:51:05;5.20;99.90
55634;DHT22;41504;53.162;6.788;2023-12-14T03:53:31;5.20;99.90
55634;DHT22;41504;53.162;6.788;2023-12-14T03:55:58;5.20;99.90
55634;DHT22;41504;53.162;6.788;2023-12-14T03:58:24;5.30;99.90
55634;DHT22;41504;53.162;6.788;2023-12-14T04:00:50;5.30;99.90
55634;DHT22;41504;53.162;6.788;2023-12-14T04:03:15;5.30;99.90
55634;DHT22;41504;53.162;6.788;2023-12-14T04:05:41;5.30;99.90
55634;DHT22;41504;53.162;6.788;2023-12-14T04:08:07;5.20;99.90
55634;DHT22;41504;53.162;6.788;2023-12-14T04:10:32;5.20;99.90
55634;DHT22;41504;53.162;6.788;2023-12-14T04:12:58;5.40;99.90
55634;DHT22;41504;53.162;6.788;2023-12-14T04:15:24;5.30;99.90
55634;DHT22;41504;53.162;6.788;2023-12-14T04:17:50;5.20;99.90
55634;DHT22;41504;53.162;6.788;2023-12-14T04:20:15;5.20;99.90
55634;DHT22;41504;53.162;6.788;2023-12-14T04:22:44;5.50;99.90
55634;DHT22;41504;53.162;6.788;2023-12-14T04:25:11;5.20;99.90
55634;DHT22;41504;53.162;6.788;2023-12-14T04:27:36;5.20;99.90
55634;DHT22;41504;53.162;6.788;2023-12-14T04:30:03;5.20;99.90
55634;DHT22;41504;53.162;6.788;2023-12-14T04:32:30;5.20;99.90
55634;DHT22;41504;53.162;6.788;2023-12-14T04:34:55;5.20;99.90
55634;DHT22;41504;53.162;6.788;2023-12-14T04:37:21;5.30;99.90
55634;DHT22;41504;53.162;6.788;2023-12-14T04:39:47;5.20;99.90
55634;DHT22;41504;53.162;6.788;2023-12-14T04:42:12;5.20;99.90
55634;DHT22;41504;53.162;6.788;2023-12-14T04:44:38;5.20;99.90
55634;DHT22;41504;53.162;6.788;2023-12-14T04:47:04;5.20;99.90
55634;DHT22;41504;53.162;6.788;2023-12-14T04:49:30;5.20;99.90
55634;DHT22;41504;53.162;6.788;2023-12-14T04:51:56;5.20;99.90
55634;DHT22;41504;53.162;6.788;2023-12-14T04:54:21;5.20;99.90
55634;DHT22;41504;53.162;6.788;2023-12-14T04:56:47;5.20;99.90
55634;DHT22;41504;53.162;6.788;2023-12-14T04:59:13;5.20;99.90
55634;DHT22;41504;53.162;6.788;2023-12-14T05:01:39;5.20;99.90
55634;DHT22;41504;53.162;6.788;2023-12-14T05:04:04;5.20;99.90
55634;DHT22;41504;53.162;6.788;2023-12-14T05:06:30;5.20;99.90
55634;DHT22;41504;53.162;6.788;2023-12-14T05:08:58;5.20;99.90
55634;DHT22;41504;53.162;6.788;2023-12-14T05:11:24;5.20;99.90
55634;DHT22;41504;53.162;6.788;2023-12-14T05:13:50;5.20;99.90
55634;DHT22;41504;53.162;6.788;2023-12-14T05:16:16;5.20;99.90
55634;DHT22;41504;53.162;6.788;2023-12-14T05:18:42;5.20;99.90
55634;DHT22;41504;53.162;6.788;2023-12-14T05:21:07;5.50;99.90
55634;DHT22;41504;53.162;6.788;2023-12-14T05:23:33;5.20;99.90
55634;DHT22;41504;53.162;6.788;2023-12-14T05:25:59;5.30;99.90
55634;DHT22;41504;53.162;6.788;2023-12-14T05:28:25;5.30;99.90
55634;DHT22;41504;53.162;6.788;2023-12-14T05:30:51;5.30;99.90
55634;DHT22;41504;53.162;6.788;2023-12-14T05:33:16;5.20;99.90
55634;DHT22;41504;53.162;6.788;2023-12-14T05:35:42;5.40;99.90
55634;DHT22;41504;53.162;6.788;2023-12-14T05:38:08;5.10;99.90
55634;DHT22;41504;53.162;6.788;2023-12-14T05:40:33;5.20;99.90
55634;DHT22;41504;53.162;6.788;2023-12-14T05:42:59;5.10;99.90
55634;DHT22;41504;53.162;6.788;2023-12-14T05:45:25;5.10;99.90
55634;DHT22;41504;53.162;6.788;2023-12-14T05:47:51;5.00;99.90
55634;DHT22;41504;53.162;6.788;2023-12-14T05:50:16;5.00;99.90
55634;DHT22;41504;53.162;6.788;2023-12-14T05:52:42;5.00;99.90
55634;DHT22;41504;53.162;6.788;2023-12-14T05:55:11;5.00;99.90
55634;DHT22;41504;53.162;6.788;2023-12-14T05:57:37;5.00;99.90
55634;DHT22;41504;53.162;6.788;2023-12-14T06:00:05;5.00;99.90
55634;DHT22;41504;53.162;6.788;2023-12-14T06:02:32;5.00;99.90
55634;DHT22;41504;53.162;6.788;2023-12-14T06:04:58;5.00;99.90
55634;DHT22;41504;53.162;6.788;2023-12-14T06:07:24;5.00;99.90
55634;DHT22;41504;53.162;6.788;2023-12-14T06:09:50;5.00;99.90
55634;DHT22;41504;53.162;6.788;2023-12-14T06:12:16;5.60;99.90
55634;DHT22;41504;53.162;6.788;2023-12-14T06:14:41;5.10;99.90
55634;DHT22;41504;53.162;6.788;2023-12-14T06:17:07;5.20;99.90
55634;DHT22;41504;53.162;6.788;2023-12-14T06:19:33;5.10;99.90
55634;DHT22;41504;53.162;6.788;2023-12-14T06:21:59;5.10;99.90
55634;DHT22;41504;53.162;6.788;2023-12-14T06:24:24;5.10;99.90
55634;DHT22;41504;53.162;6.788;2023-12-14T06:26:50;5.10;99.90
55634;DHT22;41504;53.162;6.788;2023-12-14T06:29:16;5.10;99.90
55634;DHT22;41504;53.162;6.788;2023-12-14T06:31:42;5.10;99.90
55634;DHT22;41504;53.162;6.788;2023-12-14T06:34:07;5.00;99.90
55634;DHT22;41504;53.162;6.788;2023-12-14T06:36:34;5.00;99.90
55634;DHT22;41504;53.162;6.788;2023-12-14T06:39:00;5.00;99.90
55634;DHT22;41504;53.162;6.788;2023-12-14T06:41:28;5.10;99.90
55634;DHT22;41504;53.162;6.788;2023-12-14T06:43:54;5.30;99.90
55634;DHT22;41504;53.162;6.788;2023-12-14T06:46:21;5.10;99.90
55634;DHT22;41504;53.162;6.788;2023-12-14T06:48:47;5.10;99.90
55634;DHT22;41504;53.162;6.788;2023-12-14T06:51:13;5.10;99.90
55634;DHT22;41504;53.162;6.788;2023-12-14T06:53:41;5.70;99.90
55634;DHT22;41504;53.162;6.788;2023-12-14T06:56:07;5.00;99.90
55634;DHT22;41504;53.162;6.788;2023-12-14T06:58:45;5.00;99.90
55634;DHT22;41504;53.162;6.788;2023-12-14T07:01:15;5.00;99.90
55634;DHT22;41504;53.162;6.788;2023-12-14T07:03:41;5.00;99.90
55634;DHT22;41504;53.162;6.788;2023-12-14T07:06:15;5.00;99.90
55634;DHT22;41504;53.162;6.788;2023-12-14T07:08:41;5.10;99.90
55634;DHT22;41504;53.162;6.788;2023-12-14T07:11:08;5.10;99.90
55634;DHT22;41504;53.162;6.788;2023-12-14T07:13:34;5.10;99.90
55634;DHT22;41504;53.162;6.788;2023-12-14T07:16:06;5.10;99.90
55634;DHT22;41504;53.162;6.788;2023-12-14T07:18:36;5.20;99.90
55634;DHT22;41504;53.162;6.788;2023-12-14T07:21:02;5.20;99.90
55634;DHT22;41504;53.162;6.788;2023-12-14T07:23:28;5.20;99.90
55634;DHT22;41504;53.162;6.788;2023-12-14T07:25:54;5.20;99.90
55634;DHT22;41504;53.162;6.788;2023-12-14T07:28:20;5.20;99.90
55634;DHT22;41504;53.162;6.788;2023-12-14T07:30:46;5.20;99.90
55634;DHT22;41504;53.162;6.788;2023-12-14T07:33:12;5.20;99.90
55634;DHT22;41504;53.162;6.788;2023-12-14T07:35:38;5.30;99.90
55634;DHT22;41504;53.162;6.788;2023-12-14T07:38:04;5.30;99.90
55634;DHT22;41504;53.162;6.788;2023-12-14T07:40:29;5.30;99.90
55634;DHT22;41504;53.162;6.788;2023-12-14T07:42:55;5.30;99.90
55634;DHT22;41504;53.162;6.788;2023-12-14T07:45:21;5.30;99.90
55634;DHT22;41504;53.162;6.788;2023-12-14T07:47:47;5.30;99.90
55634;DHT22;41504;53.162;6.788;2023-12-14T07:50:15;5.30;99.90
55634;DHT22;41504;53.162;6.788;2023-12-14T07:52:44;5.40;99.90
55634;DHT22;41504;53.162;6.788;2023-12-14T07:55:10;5.30;99.90
55634;DHT22;41504;53.162;6.788;2023-12-14T07:57:36;5.30;99.90
55634;DHT22;41504;53.162;6.788;2023-12-14T08:00:02;5.30;99.90
55634;DHT22;41504;53.162;6.788;2023-12-14T08:02:29;5.30;99.90
55634;DHT22;41504;53.162;6.788;2023-12-14T08:04:55;5.30;99.90
55634;DHT22;41504;53.162;6.788;2023-12-14T08:07:20;5.50;99.90
55634;DHT22;41504;53.162;6.788;2023-12-14T08:09:46;5.30;99.90
55634;DHT22;41504;53.162;6.788;2023-12-14T08:12:12;5.30;99.90
55634;DHT22;41504;53.162;6.788;2023-12-14T08:14:38;5.30;99.90
55634;DHT22;41504;53.162;6.788;2023-12-14T08:17:09;5.30;99.90
55634;DHT22;41504;53.162;6.788;2023-12-14T08:19:34;5.40;99.90
55634;DHT22;41504;53.162;6.788;2023-12-14T08:22:00;5.30;99.90
55634;DHT22;41504;53.162;6.788;2023-12-14T08:24:26;5.30;99.90
55634;DHT22;41504;53.162;6.788;2023-12-14T08:26:51;5.40;99.90
55634;DHT22;41504;53.162;6.788;2023-12-14T08:29:17;5.50;99.90
55634;DHT22;41504;53.162;6.788;2023-12-14T08:31:43;5.40;99.90
55634;DHT22;41504;53.162;6.788;2023-12-14T08:34:08;5.30;99.90
55634;DHT22;41504;53.162;6.788;2023-12-14T08:36:34;5.30;99.90
55634;DHT22;41504;53.162;6.788;2023-12-14T08:39:00;5.30;99.90
55634;DHT22;41504;53.162;6.788;2023-12-14T08:41:25;5.40;99.90
55634;DHT22;41504;53.162;6.788;2023-12-14T08:43:51;5.40;99.90
55634;DHT22;41504;53.162;6.788;2023-12-14T08:46:17;5.70;99.90
55634;DHT22;41504;53.162;6.788;2023-12-14T08:48:42;5.40;99.90
55634;DHT22;41504;53.162;6.788;2023-12-14T08:51:08;5.50;99.90
55634;DHT22;41504;53.162;6.788;2023-12-14T08:53:34;5.30;99.90
55634;DHT22;41504;53.162;6.788;2023-12-14T08:56:00;5.40;99.90
55634;DHT22;41504;53.162;6.788;2023-12-14T08:58:26;5.70;99.90
55634;DHT22;41504;53.162;6.788;2023-12-14T09:00:51;5.30;99.90
55634;DHT22;41504;53.162;6.788;2023-12-14T09:03:19;5.40;99.90
55634;DHT22;41504;53.162;6.788;2023-12-14T09:05:45;5.70;99.90
55634;DHT22;41504;53.162;6.788;2023-12-14T09:08:11;5.40;99.90
55634;DHT22;41504;53.162;6.788;2023-12-14T09:10:40;5.50;99.90
55634;DHT22;41504;53.162;6.788;2023-12-14T09:13:06;5.40;99.90
55634;DHT22;41504;53.162;6.788;2023-12-14T09:15:32;5.50;99.90
55634;DHT22;41504;53.162;6.788;2023-12-14T09:17:58;5.70;99.90
55634;DHT22;41504;53.162;6.788;2023-12-14T09:20:24;5.50;99.90
55634;DHT22;41504;53.162;6.788;2023-12-14T09:22:50;5.60;99.90
55634;DHT22;41504;53.162;6.788;2023-12-14T09:25:16;5.90;99.90
55634;DHT22;41504;53.162;6.788;2023-12-14T09:27:42;5.60;99.90
55634;DHT22;41504;53.162;6.788;2023-12-14T09:30:08;6.10;99.90
55634;DHT22;41504;53.162;6.788;2023-12-14T09:32:34;5.60;99.90
55634;DHT22;41504;53.162;6.788;2023-12-14T09:35:00;5.70;99.90
55634;DHT22;41504;53.162;6.788;2023-12-14T09:37:26;5.80;99.90
55634;DHT22;41504;53.162;6.788;2023-12-14T09:39:52;5.60;99.90
55634;DHT22;41504;53.162;6.788;2023-12-14T09:42:20;5.60;99.90
55634;DHT22;41504;53.162;6.788;2023-12-14T09:44:47;5.80;99.90
55634;DHT22;41504;53.162;6.788;2023-12-14T09:47:13;5.60;99.90
55634;DHT22;41504;53.162;6.788;2023-12-14T09:49:39;5.70;99.90
55634;DHT22;41504;53.162;6.788;2023-12-14T09:52:08;5.90;99.90
55634;DHT22;41504;53.162;6.788;2023-12-14T09:54:34;5.60;99.90
55634;DHT22;41504;53.162;6.788;2023-12-14T09:57:00;5.60;99.90
55634;DHT22;41504;53.162;6.788;2023-12-14T09:59:26;5.70;99.90
55634;DHT22;41504;53.162;6.788;2023-12-14T10:01:52;5.60;99.90
55634;DHT22;41504;53.162;6.788;2023-12-14T10:04:19;6.00;99.90
55634;DHT22;41504;53.162;6.788;2023-12-14T10:06:46;5.60;99.90
55634;DHT22;41504;53.162;6.788;2023-12-14T10:09:12;5.60;99.90
55634;DHT22;41504;53.162;6.788;2023-12-14T10:11:44;6.20;99.90
55634;DHT22;41504;53.162;6.788;2023-12-14T10:14:30;5.60;99.90
55634;DHT22;41504;53.162;6.788;2023-12-14T10:16:56;5.70;99.90
55634;DHT22;41504;53.162;6.788;2023-12-14T10:19:22;5.60;99.90
55634;DHT22;41504;53.162;6.788;2023-12-14T10:21:49;5.70;99.90
55634;DHT22;41504;53.162;6.788;2023-12-14T10:24:16;6.40;99.90
55634;DHT22;41504;53.162;6.788;2023-12-14T10:26:44;5.70;99.90
55634;DHT22;41504;53.162;6.788;2023-12-14T10:29:10;5.70;99.90
55634;DHT22;41504;53.162;6.788;2023-12-14T10:31:36;6.10;99.90
55634;DHT22;41504;53.162;6.788;2023-12-14T10:34:03;5.80;99.90
55634;DHT22;41504;53.162;6.788;2023-12-14T10:36:30;5.70;99.90
55634;DHT22;41504;53.162;6.788;2023-12-14T10:38:58;6.00;99.90
55634;DHT22;41504;53.162;6.788;2023-12-14T10:41:24;5.70;99.90
55634;DHT22;41504;53.162;6.788;2023-12-14T10:43:53;5.80;99.90
55634;DHT22;41504;53.162;6.788;2023-12-14T10:46:20;5.80;99.90
55634;DHT22;41504;53.162;6.788;2023-12-14T10:48:50;5.70;99.90
55634;DHT22;41504;53.162;6.788;2023-12-14T10:51:22;5.80;99.90
55634;DHT22;41504;53.162;6.788;2023-12-14T10:53:49;6.20;99.90
55634;DHT22;41504;53.162;6.788;2023-12-14T10:56:17;6.30;99.90
55634;DHT22;41504;53.162;6.788;2023-12-14T10:58:56;5.80;99.90
55634;DHT22;41504;53.162;6.788;2023-12-14T11:01:24;6.10;99.90
55634;DHT22;41504;53.162;6.788;2023-12-14T11:03:55;5.90;99.90
55634;DHT22;41504;53.162;6.788;2023-12-14T11:08:56;6.20;99.90
55634;DHT22;41504;53.162;6.788;2023-12-14T11:11:21;5.90;99.90
55634;DHT22;41504;53.162;6.788;2023-12-14T11:13:52;6.00;99.90
55634;DHT22;41504;53.162;6.788;2023-12-14T11:16:21;6.00;99.90
55634;DHT22;41504;53.162;6.788;2023-12-14T11:18:48;6.10;99.90
55634;DHT22;41504;53.162;6.788;2023-12-14T11:21:20;5.90;99.90
55634;DHT22;41504;53.162;6.788;2023-12-14T11:23:50;5.90;99.90
55634;DHT22;41504;53.162;6.788;2023-12-14T11:26:21;6.00;99.90
55634;DHT22;41504;53.162;6.788;2023-12-14T11:28:50;5.90;99.90
55634;DHT22;41504;53.162;6.788;2023-12-14T11:31:16;5.90;99.90
55634;DHT22;41504;53.162;6.788;2023-12-14T11:33:43;5.90;99.90
55634;DHT22;41504;53.162;6.788;2023-12-14T11:36:12;5.90;99.90
55634;DHT22;41504;53.162;6.788;2023-12-14T11:38:37;5.90;99.90
55634;DHT22;41504;53.162;6.788;2023-12-14T11:41:03;6.20;99.90
55634;DHT22;41504;53.162;6.788;2023-12-14T11:43:29;5.90;99.90
55634;DHT22;41504;53.162;6.788;2023-12-14T11:45:55;5.90;99.90
55634;DHT22;41504;53.162;6.788;2023-12-14T11:48:24;6.00;99.90
55634;DHT22;41504;53.162;6.788;2023-12-14T11:50:50;5.90;99.90
55634;DHT22;41504;53.162;6.788;2023-12-14T11:53:15;6.50;99.90
55634;DHT22;41504;53.162;6.788;2023-12-14T11:55:42;6.00;99.90
55634;DHT22;41504;53.162;6.788;2023-12-14T11:58:11;6.10;99.90
55634;DHT22;41504;53.162;6.788;2023-12-14T12:00:37;6.00;99.90
55634;DHT22;41504;53.162;6.788;2023-12-14T12:03:15;5.90;99.90
55634;DHT22;41504;53.162;6.788;2023-12-14T12:05:43;5.90;99.90
55634;DHT22;41504;53.162;6.788;2023-12-14T12:08:11;5.90;99.90
55634;DHT22;41504;53.162;6.788;2023-12-14T12:10:38;6.00;99.90
55634;DHT22;41504;53.162;6.788;2023-12-14T12:13:11;6.10;99.90
55634;DHT22;41504;53.162;6.788;2023-12-14T12:15:37;6.00;99.90
55634;DHT22;41504;53.162;6.788;2023-12-14T12:18:08;5.90;99.90
55634;DHT22;41504;53.162;6.788;2023-12-14T12:20:34;5.90;99.90
55634;DHT22;41504;53.162;6.788;2023-12-14T12:23:01;6.50;99.90
55634;DHT22;41504;53.162;6.788;2023-12-14T12:25:27;6.00;99.90
55634;DHT22;41504;53.162;6.788;2023-12-14T12:27:54;6.00;99.90
55634;DHT22;41504;53.162;6.788;2023-12-14T12:30:21;6.10;99.90
55634;DHT22;41504;53.162;6.788;2023-12-14T12:32:47;6.00;99.90
55634;DHT22;41504;53.162;6.788;2023-12-14T12:35:12;6.20;99.90
55634;DHT22;41504;53.162;6.788;2023-12-14T12:37:39;6.00;99.90
55634;DHT22;41504;53.162;6.788;2023-12-14T12:40:05;6.00;99.90
55634;DHT22;41504;53.162;6.788;2023-12-14T12:42:32;5.70;99.90
55634;DHT22;41504;53.162;6.788;2023-12-14T12:44:58;6.00;99.90
55634;DHT22;41504;53.162;6.788;2023-12-14T12:47:24;6.10;99.90
55634;DHT22;41504;53.162;6.788;2023-12-14T12:49:49;6.10;99.90
55634;DHT22;41504;53.162;6.788;2023-12-14T12:52:15;6.10;99.90
55634;DHT22;41504;53.162;6.788;2023-12-14T12:54:41;6.10;99.90
55634;DHT22;41504;53.162;6.788;2023-12-14T12:57:06;6.10;99.90
55634;DHT22;41504;53.162;6.788;2023-12-14T12:59:32;6.10;99.90
55634;DHT22;41504;53.162;6.788;2023-12-14T13:02:01;6.10;99.90
55634;DHT22;41504;53.162;6.788;2023-12-14T13:04:28;6.10;99.90
55634;DHT22;41504;53.162;6.788;2023-12-14T13:06:56;6.10;99.90
55634;DHT22;41504;53.162;6.788;2023-12-14T13:09:22;6.50;99.90
55634;DHT22;41504;53.162;6.788;2023-12-14T13:11:48;6.50;99.90
55634;DHT22;41504;53.162;6.788;2023-12-14T13:14:15;6.10;99.90
55634;DHT22;41504;53.162;6.788;2023-12-14T13:16:41;6.10;99.90
55634;DHT22;41504;53.162;6.788;2023-12-14T13:19:08;6.10;99.90
55634;DHT22;41504;53.162;6.788;2023-12-14T13:21:35;6.10;99.90
55634;DHT22;41504;53.162;6.788;2023-12-14T13:24:01;6.10;99.90
55634;DHT22;41504;53.162;6.788;2023-12-14T13:26:28;6.10;99.90
55634;DHT22;41504;53.162;6.788;2023-12-14T13:28:54;6.10;99.90
55634;DHT22;41504;53.162;6.788;2023-12-14T13:31:20;6.10;99.90
55634;DHT22;41504;53.162;6.788;2023-12-14T13:33:46;6.10;99.90
55634;DHT22;41504;53.162;6.788;2023-12-14T13:36:12;6.10;99.90
55634;DHT22;41504;53.162;6.788;2023-12-14T13:38:38;6.10;99.90
55634;DHT22;41504;53.162;6.788;2023-12-14T13:41:04;6.10;99.90
55634;DHT22;41504;53.162;6.788;2023-12-14T13:43:31;6.20;99.90
55634;DHT22;41504;53.162;6.788;2023-12-14T13:45:57;6.20;99.90
55634;DHT22;41504;53.162;6.788;2023-12-14T13:48:26;6.20;99.90
55634;DHT22;41504;53.162;6.788;2023-12-14T13:50:56;6.50;99.90
55634;DHT22;41504;53.162;6.788;2023-12-14T13:53:23;6.20;99.90
55634;DHT22;41504;53.162;6.788;2023-12-14T13:55:50;6.20;99.90
55634;DHT22;41504;53.162;6.788;2023-12-14T13:58:15;6.20;99.90
55634;DHT22;41504;53.162;6.788;2023-12-14T14:00:43;6.20;99.90
55634;DHT22;41504;53.162;6.788;2023-12-14T14:03:09;6.20;99.90
55634;DHT22;41504;53.162;6.788;2023-12-14T14:05:35;6.20;99.90
55634;DHT22;41504;53.162;6.788;2023-12-14T14:08:01;6.60;99.90
55634;DHT22;41504;53.162;6.788;2023-12-14T14:10:27;6.10;99.90
55634;DHT22;41504;53.162;6.788;2023-12-14T14:12:53;6.20;99.90
55634;DHT22;41504;53.162;6.788;2023-12-14T14:15:19;6.10;99.90
55634;DHT22;41504;53.162;6.788;2023-12-14T14:17:50;6.20;99.90
55634;DHT22;41504;53.162;6.788;2023-12-14T14:20:20;6.10;99.90
55634;DHT22;41504;53.162;6.788;2023-12-14T14:22:47;6.10;99.90
55634;DHT22;41504;53.162;6.788;2023-12-14T14:25:13;6.10;99.90
55634;DHT22;41504;53.162;6.788;2023-12-14T14:27:39;6.10;99.90
55634;DHT22;41504;53.162;6.788;2023-12-14T14:30:09;6.10;99.90
55634;DHT22;41504;53.162;6.788;2023-12-14T14:32:35;6.10;99.90
55634;DHT22;41504;53.162;6.788;2023-12-14T14:35:03;6.50;99.90
55634;DHT22;41504;53.162;6.788;2023-12-14T14:37:30;6.00;99.90
55634;DHT22;41504;53.162;6.788;2023-12-14T14:39:58;6.10;99.90
55634;DHT22;41504;53.162;6.788;2023-12-14T14:42:23;6.00;99.90
55634;DHT22;41504;53.162;6.788;2023-12-14T14:44:50;6.20;99.90
55634;DHT22;41504;53.162;6.788;2023-12-14T14:47:16;6.00;99.90
55634;DHT22;41504;53.162;6.788;2023-12-14T14:49:43;6.00;99.90
55634;DHT22;41504;53.162;6.788;2023-12-14T14:52:09;6.10;99.90
55634;DHT22;41504;53.162;6.788;2023-12-14T14:54:35;6.00;99.90
55634;DHT22;41504;53.162;6.788;2023-12-14T14:57:00;6.00;99.90
55634;DHT22;41504;53.162;6.788;2023-12-14T14:59:26;6.50;99.90
55634;DHT22;41504;53.162;6.788;2023-12-14T15:01:55;6.00;99.90
55634;DHT22;41504;53.162;6.788;2023-12-14T15:04:21;6.00;99.90
55634;DHT22;41504;53.162;6.788;2023-12-14T15:06:47;6.00;99.90
55634;DHT22;41504;53.162;6.788;2023-12-14T15:09:12;6.00;99.90
55634;DHT22;41504;53.162;6.788;2023-12-14T15:11:38;6.00;99.90
55634;DHT22;41504;53.162;6.788;2023-12-14T15:14:04;6.00;99.90
55634;DHT22;41504;53.162;6.788;2023-12-14T15:16:30;6.00;99.90
55634;DHT22;41504;53.162;6.788;2023-12-14T15:18:55;6.00;99.90
55634;DHT22;41504;53.162;6.788;2023-12-14T15:21:21;6.00;99.90
55634;DHT22;41504;53.162;6.788;2023-12-14T15:23:47;6.00;99.90
55634;DHT22;41504;53.162;6.788;2023-12-14T15:26:14;5.90;99.90
55634;DHT22;41504;53.162;6.788;2023-12-14T15:28:41;5.90;99.90
55634;DHT22;41504;53.162;6.788;2023-12-14T15:31:07;5.90;99.90
55634;DHT22;41504;53.162;6.788;2023-12-14T15:33:32;5.90;99.90
55634;DHT22;41504;53.162;6.788;2023-12-14T15:35:58;5.90;99.90
55634;DHT22;41504;53.162;6.788;2023-12-14T15:38:26;5.90;99.90
55634;DHT22;41504;53.162;6.788;2023-12-14T15:40:54;5.90;99.90
55634;DHT22;41504;53.162;6.788;2023-12-14T15:43:19;5.90;99.90